Aeroporto :
LOGIN :

Iscrizione | Disclaimer

   EN    FR    IT 

 










Sommario :    VFR   VFR Marginale   IFR   IFR Intensivo   IFR Molto Intensivo
Visibilità : 
Base nubi : 
>= 8 km
>= 3000ft
5 / 8 km
1000 / 3000 ft
1500m / 5 km
500 / 1000 ft
800 / 1500m
200 / 500 ft
< 800m
< 200 ft
Simboli :   Temporali  Nebbia  Neve Forte  Precipitazioni Forti  Vento > 20 kt
SIGMETs :   Varie  Temporali  Ghiacco  Turbolenza  Onda orograficha  Ceneri Vulcaniche







- Altitudine del aeroporto : 659 ft
- Codice IATA : LGG


EBLG - Liège

ULTIMO METAR :
  • 281150Z 24008KT 9999 FEW022 BKN030 09/04 Q1014 TEMPO BKN014

METARs OBSOLETI :
  • 281120Z 23008KT 200V270 9999 FEW022 SCT040 09/05 Q1014 TEMPO BKN012
  • 281050Z 24010KT 9999 FEW020 SCT040 07/04 Q1014 TEMPO BKN012
  • 281020Z 25007KT 9000 SCT017 SCT020 08/06 Q1014 TEMPO BKN012
  • 280950Z 27006KT 240V310 9999 SCT016 BKN019 08/04 Q1014 TEMPO BKN012
  • 280920Z 23004KT 200V260 9999 SCT014 BKN018 08/03 Q1014 TEMPO BKN012

TAF TAF EBLG
Valido dal 28 a 12 ore il 29 a 18 ore UTC


281120Z 2812/2918 31010KT 9999 FEW024
PROB30
TEMPO 2812/2816 4500 SHRA
BECMG 2823/2901 19005KT
PROB40
TEMPO 2902/2905 2000 BR
BECMG 2910/2912 07004KT
Nessun NOTAM noto per questo aeroporto.



MetMap, La meteo Aeronautica in un colpo d'occhio ! - Copyright ORBIFLY Dicembre 2007 - Disclaimer

ORBIFLY MET'MAP TEAM :

Programmazione e sviluppo : Alexandra Zaïnal
Concezione e sviluppo : Baudouin d'Aumeries
Co-Programmazione e sviluppo : Marc-Olivier Méhu
Supporto tecnico e logistico : Manuel Goepfert
Aiuto per la traduzione : Arnaldo La Scala

Contatto : metmap@orbifly.com




FONTI E CREDITI :

   NOAA